Aviation Digital Data Service (ADDS)

Output produced by METARs form (0324 UTC 26 March 2017)
found at http://www.aviationweather.gov/adds/metars/
 
KCXY 260256Z AUTO 08011KT 10SM BKN060 13/06 A3027 RMK AO2 SLP251 T01330056 51021
KCXY 260156Z AUTO 09009KT 10SM BKN060 14/06 A3026 RMK AO2 SLP247 T01390056
KCXY 260056Z 09009KT 10SM CLR 15/06 A3024 RMK AO2 SLP242 T01500061
KCXY 252356Z 06014KT 10SM OVC100 18/07 A3021 RMK AO2 SLP231 T01830072 10256 20178 53029
KCXY 252256Z 33010KT 10SM OVC070 20/08 A3016 RMK AO2 SLP214 T02000083
KCXY 252156Z 00000KT 10SM OVC095 25/10 A3013 RMK AO2 SLP202 T02500100
KCXY 252056Z 00000KT 10SM FEW110 25/11 A3012 RMK AO2 SLP201 T02500106 56006
KCXY 251956Z 24003KT 10SM BKN060 OVC110 26/11 A3013 RMK AO2 SLP202 T02560106
KCXY 251856Z 24006KT 10SM SCT120 25/11 A3013 RMK AO2 SLP202 T02500106
KCXY 251756Z 01003KT 10SM SCT110 24/09 A3014 RMK AO2 SLP207 T02390094 10244 20089 58005
KCXY 251656Z VRB04KT 10SM OVC110 22/09 A3015 RMK AO2 SLP209 T02220089
KCXY 251556Z 31004KT 10SM OVC120 19/08 A3015 RMK AO2 SLP212 T01940083
KCXY 251456Z 29005KT 10SM CLR 18/08 A3015 RMK AO2 SLP212 T01780078 51005
KCXY 251356Z 00000KT 10SM FEW120 14/06 A3015 RMK AO2 SLP212 T01390061
KCXY 251256Z 00000KT 10SM CLR 11/06 A3016 RMK AO2 SLP213 T01110056
KCXY 251156Z 00000KT 10SM CLR 09/05 A3014 RMK AO2 SLP207 T00890050 10094 20078 53011
KCXY 251056Z 00000KT 10SM CLR 09/04 A3013 RMK AO2 SLP203 T00890039
KCXY 250956Z AUTO 00000KT 10SM CLR 08/04 A3012 RMK AO2 SLP199 T00780039
KCXY 250856Z AUTO 00000KT 10SM CLR 08/04 A3011 RMK AO2 SLP197 T00830039 55005
KCXY 250756Z AUTO 00000KT 10SM CLR 08/03 A3011 RMK AO2 SLP197 T00780033
KCXY 250656Z AUTO 00000KT 10SM CLR 08/03 A3011 RMK AO2 SLP200 T00830033
KCXY 250556Z AUTO 00000KT 10SM CLR 08/03 A3012 RMK AO2 SLP203 T00830033 10144 20078 58006
KCXY 250456Z AUTO 00000KT 10SM CLR 09/03 A3014 RMK AO2 SLP208 T00890033 401500011
KCXY 250356Z AUTO 00000KT 10SM CLR 09/03 A3014 RMK AO2 SLP210 T00940028
KCXY 250256Z AUTO 00000KT 10SM CLR 10/03 A3014 RMK AO2 SLP210 T01000028 53007
KCXY 250156Z AUTO 00000KT 10SM CLR 13/02 A3013 RMK AO2 SLP206 T01330022
KCXY 250056Z VRB03KT 10SM CLR 13/02 A3012 RMK AO2 SLP203 T01330022
KCXY 242356Z 20005KT 10SM CLR 14/03 A3012 RMK AO2 SLP203 T01390028 10150 20111 56005
KCXY 242256Z VRB03KT 10SM CLR 14/03 A3012 RMK AO2 SLP203 T01440033
KCXY 242156Z 24006KT 10SM CLR 15/04 A3013 RMK AO2 SLP204 T01500039
KCXY 242056Z 21006KT 10SM CLR 14/04 A3014 RMK AO2 SLP208 T01440039 56037
KCXY 241956Z 22011G15KT 10SM CLR 13/03 A3017 RMK AO2 SLP218 T01330033
KCXY 241856Z 22009KT 10SM SCT100 12/02 A3021 RMK AO2 SLP234 T01220022
KCXY 241756Z 21009G16KT 10SM SCT060 BKN090 11/02 A3025 RMK AO2 SLP246 60000 T01110022 10117 20033 57041
KCXY 241656Z 19009KT 10SM CLR 10/01 A3029 RMK AO2 SLP259 T01000011
KCXY 241556Z 20009G15KT 10SM SCT075 BKN110 07/M01 A3033 RMK AO2 SLP275 T00721006